Time;durP1;ratioP1;P1;durP2;ratioP2;P2;SDS_P1;SDS_P2;PMS_P1;PMS_P2;Temp;Humidity;BMP_temperature;BMP_pressure;BME280_temperature;BME280_humidity;BME280_pressure;Samples;Min_cycle;Max_cycle;Signal;HPM_P1;HPM_P2
2023/09/02 00:02:20;;;;;;;2.25;0.93;;;;;;;19.46;100.00;96423.66;5039262;28;20209;-66
2023/09/02 00:04:46;;;;;;;2.17;1.15;;;;;;;19.31;100.00;96428.59;5039671;28;20204;-66
2023/09/02 00:07:13;;;;;;;1.42;1.10;;;;;;;19.33;100.00;96428.38;5038810;28;21090;-66
2023/09/02 00:09:39;;;;;;;0.77;0.75;;;;;;;19.31;100.00;96420.59;5039138;28;20201;-67
2023/09/02 00:12:08;;;;;;;0.65;0.63;;;;;;;19.62;100.00;96429.16;5039340;28;20212;-67
2023/09/02 00:14:35;;;;;;;4.22;0.90;;;;;;;19.44;100.00;96430.28;5039505;28;20952;-68
2023/09/02 00:17:02;;;;;;;1.08;0.90;;;;;;;19.40;100.00;96434.44;5037876;28;20229;-68
2023/09/02 00:19:29;;;;;;;1.30;0.90;;;;;;;19.29;100.00;96435.22;5038898;28;20205;-68
2023/09/02 00:21:55;;;;;;;0.80;0.70;;;;;;;19.25;100.00;96432.16;5039413;28;20208;-68
2023/09/02 00:24:22;;;;;;;1.00;0.75;;;;;;;19.23;100.00;96428.94;5039227;28;20211;-68
2023/09/02 00:26:49;;;;;;;2.28;1.13;;;;;;;19.22;100.00;96431.78;5038889;28;20638;-67
2023/09/02 00:29:17;;;;;;;1.27;0.70;;;;;;;19.42;100.00;96433.16;5039626;28;20287;-67
2023/09/02 00:31:43;;;;;;;1.45;0.77;;;;;;;19.04;100.00;96437.13;5038921;28;20201;-67
2023/09/02 00:34:10;;;;;;;2.25;0.80;;;;;;;19.05;100.00;96436.94;5038843;28;20252;-67
2023/09/02 00:36:36;;;;;;;1.10;0.90;;;;;;;18.81;100.00;96434.31;5038603;28;20244;-67
2023/09/02 00:39:03;;;;;;;1.00;0.82;;;;;;;18.89;100.00;96443.91;5037552;28;20201;-67
2023/09/02 00:41:33;;;;;;;2.58;1.17;;;;;;;19.34;100.00;96432.69;5039254;28;20221;-67
2023/09/02 00:44:00;;;;;;;3.42;0.82;;;;;;;19.00;100.00;96438.63;5038327;28;20202;-67
2023/09/02 00:46:28;;;;;;;0.70;0.55;;;;;;;19.05;100.00;96433.44;5039665;28;20221;-67
2023/09/02 00:48:55;;;;;;;1.55;0.90;;;;;;;18.79;100.00;96444.44;5037837;28;20201;-67
2023/09/02 00:51:22;;;;;;;1.40;0.93;;;;;;;18.79;100.00;96432.91;5038138;28;20205;-67
2023/09/02 00:53:48;;;;;;;4.85;0.70;;;;;;;18.69;100.00;96437.97;5039223;28;20209;-67
2023/09/02 00:56:16;;;;;;;1.77;1.25;;;;;;;18.79;100.00;96446.25;5038103;28;20229;-67
2023/09/02 00:58:43;;;;;;;0.77;0.68;;;;;;;18.70;100.00;96448.44;5036915;28;20205;-67
2023/09/02 01:01:10;;;;;;;1.38;0.88;;;;;;;18.68;100.00;96453.16;5038216;28;20212;-67
2023/09/02 01:03:39;;;;;;;1.77;0.95;;;;;;;18.79;100.00;96447.09;5039358;28;20213;-67
2023/09/02 01:06:07;;;;;;;1.17;0.95;;;;;;;18.39;100.00;96451.22;5038676;28;20227;-67
2023/09/02 01:08:34;;;;;;;1.27;0.80;;;;;;;18.52;100.00;96445.75;5037606;28;20203;-67
2023/09/02 01:11:02;;;;;;;1.35;0.80;;;;;;;18.54;100.00;96446.31;5038236;28;20205;-67
2023/09/02 01:13:30;;;;;;;1.10;0.70;;;;;;;18.53;100.00;96447.38;5038284;28;20233;-67
2023/09/02 01:15:57;;;;;;;1.42;0.80;;;;;;;18.61;100.00;96448.91;5038189;28;20212;-67
2023/09/02 01:18:23;;;;;;;1.50;1.23;;;;;;;18.69;100.00;96446.00;5037029;28;20615;-67
2023/09/02 01:21:23;;;;;;;1.65;0.80;;;;;;;19.25;100.00;96437.53;5037785;28;20201;-67
2023/09/02 01:24:07;;;;;;;0.80;0.80;;;;;;;19.00;100.00;96436.78;5026080;28;20201;-67
2023/09/02 01:27:02;;;;;;;1.98;0.90;;;;;;;19.03;100.00;96441.69;5037859;28;20221;-67
2023/09/02 01:29:36;;;;;;;0.88;0.60;;;;;;;18.86;100.00;96439.81;5037990;28;20201;-67
2023/09/02 01:32:06;;;;;;;1.50;0.85;;;;;;;18.84;100.00;96444.59;5037767;28;20300;-67
2023/09/02 01:34:34;;;;;;;2.50;1.20;;;;;;;18.51;100.00;96438.78;5038177;28;20232;-67
2023/09/02 01:37:02;;;;;;;2.67;1.00;;;;;;;18.50;100.00;96449.66;5036343;28;20233;-68
2023/09/02 01:39:32;;;;;;;1.17;0.70;;;;;;;18.54;100.00;96451.66;5037528;28;20992;-68
2023/09/02 01:42:01;;;;;;;2.25;1.00;;;;;;;18.40;100.00;96450.16;5037441;28;20216;-68
2023/09/02 01:44:29;;;;;;;1.25;0.70;;;;;;;18.32;100.00;96448.81;5037958;28;20201;-67
2023/09/02 01:46:56;;;;;;;1.65;1.10;;;;;;;18.33;100.00;96447.78;5036705;28;20267;-68
2023/09/02 01:49:22;;;;;;;1.00;0.88;;;;;;;18.19;100.00;96446.25;5037897;28;20201;-67
2023/09/02 01:51:50;;;;;;;1.55;1.02;;;;;;;18.21;100.00;96450.34;5037317;28;20205;-67
2023/09/02 01:54:16;;;;;;;1.00;0.73;;;;;;;18.21;100.00;96457.53;5037563;28;20209;-67
2023/09/02 01:56:43;;;;;;;0.90;0.80;;;;;;;18.20;100.00;96456.75;5037091;28;20620;-67
2023/09/02 01:59:11;;;;;;;1.00;0.70;;;;;;;18.32;100.00;96448.81;5037422;28;20205;-67
2023/09/02 02:01:37;;;;;;;1.02;0.80;;;;;;;18.11;100.00;96462.50;5036851;28;20208;-67
2023/09/02 02:04:11;;;;;;;0.88;0.65;;;;;;;18.50;100.00;96463.00;5037425;28;20675;-67
2023/09/02 02:06:40;;;;;;;1.80;1.00;;;;;;;18.47;100.00;96466.94;5038010;28;20268;-67
2023/09/02 02:09:12;;;;;;;0.63;0.63;;;;;;;18.42;100.00;96466.78;5036537;28;20260;-67
2023/09/02 02:11:39;;;;;;;3.78;1.13;;;;;;;18.34;100.00;96459.06;5036498;28;20679;-67
2023/09/02 02:14:06;;;;;;;1.15;0.88;;;;;;;18.34;100.00;96467.06;5037426;28;21459;-67
2023/09/02 02:16:34;;;;;;;1.65;1.08;;;;;;;18.29;100.00;96459.94;5037177;28;21030;-67
2023/09/02 02:19:02;;;;;;;1.73;0.82;;;;;;;18.28;100.00;96461.78;5034344;28;20205;-67
2023/09/02 02:21:30;;;;;;;1.25;1.00;;;;;;;18.05;100.00;96466.03;5036980;28;20201;-67
2023/09/02 02:23:57;;;;;;;0.80;0.80;;;;;;;18.04;100.00;96467.91;5036365;28;20212;-67
2023/09/02 02:26:24;;;;;;;0.70;0.60;;;;;;;18.00;100.00;96461.38;5036259;28;20233;-67
2023/09/02 02:28:50;;;;;;;1.90;0.93;;;;;;;17.95;100.00;96460.41;5036998;28;20205;-67
2023/09/02 02:31:17;;;;;;;1.27;0.90;;;;;;;18.03;100.00;96465.47;5037254;28;20574;-67
2023/09/02 02:33:44;;;;;;;1.02;0.88;;;;;;;18.40;100.00;96468.84;5036946;28;20201;-67
2023/09/02 02:36:11;;;;;;;1.30;0.75;;;;;;;18.20;100.00;96466.56;5036362;28;20587;-67
2023/09/02 02:38:37;;;;;;;0.88;0.70;;;;;;;18.12;100.00;96469.50;5036130;28;20742;-66
2023/09/02 02:41:04;;;;;;;0.70;0.70;;;;;;;18.00;100.00;96468.56;5036293;28;20208;-66
2023/09/02 02:43:30;;;;;;;0.93;0.82;;;;;;;17.80;100.00;96465.22;5036695;28;20198;-66
2023/09/02 02:45:57;;;;;;;0.77;0.40;;;;;;;17.71;100.00;96467.31;5037059;28;20251;-66
2023/09/02 02:48:27;;;;;;;1.15;0.77;;;;;;;18.18;100.00;96468.66;5035602;28;20221;-66
2023/09/02 02:50:55;;;;;;;1.27;0.88;;;;;;;18.10;100.00;96476.88;5036567;28;20213;-67
2023/09/02 02:53:22;;;;;;;1.60;0.90;;;;;;;17.98;100.00;96468.75;5035860;28;20209;-67
2023/09/02 02:55:49;;;;;;;7.95;0.95;;;;;;;17.63;100.00;96464.09;5036593;28;20247;-66
2023/09/02 02:58:16;;;;;;;1.33;1.05;;;;;;;17.62;100.00;96465.13;5035216;28;20722;-66
2023/09/02 03:00:43;;;;;;;1.63;1.10;;;;;;;17.57;100.00;96467.63;5036342;28;21025;-66
2023/09/02 03:03:10;;;;;;;2.08;1.15;;;;;;;17.57;100.00;96470.28;5036220;28;20209;-66
2023/09/02 03:05:37;;;;;;;1.88;1.00;;;;;;;17.63;100.00;96464.09;5036415;28;20205;-66
2023/09/02 03:08:06;;;;;;;3.63;0.90;;;;;;;17.81;100.00;96465.00;5035231;28;20224;-68
2023/09/02 03:10:34;;;;;;;2.05;0.93;;;;;;;17.49;100.00;96469.72;5035908;28;20208;-66
2023/09/02 03:13:00;;;;;;;1.27;0.60;;;;;;;17.51;100.00;96463.13;5035574;28;20205;-66
2023/09/02 03:15:27;;;;;;;5.07;1.00;;;;;;;17.38;100.00;96467.75;5036731;28;20208;-67
2023/09/02 03:17:53;;;;;;;1.05;0.82;;;;;;;17.45;100.00;96461.34;5036438;28;20225;-67
2023/09/02 03:20:20;;;;;;;1.38;0.98;;;;;;;17.34;100.00;96462.00;5035643;28;20205;-66
2023/09/02 03:22:47;;;;;;;2.13;1.13;;;;;;;17.44;100.00;96459.72;5035661;28;20794;-67
2023/09/02 03:25:15;;;;;;;1.20;0.80;;;;;;;17.72;100.00;96468.16;5036161;28;20201;-66
2023/09/02 03:27:42;;;;;;;3.15;1.10;;;;;;;17.47;100.00;96467.25;5035348;28;20216;-67
2023/09/02 03:30:09;;;;;;;1.52;0.90;;;;;;;17.50;100.00;96469.53;5035650;28;20216;-67
2023/09/02 03:32:36;;;;;;;1.15;0.55;;;;;;;17.25;100.00;96479.25;5036564;28;20208;-67
2023/09/02 03:35:04;;;;;;;1.05;0.80;;;;;;;17.38;100.00;96468.53;5035344;28;20209;-67
2023/09/02 03:37:30;;;;;;;2.03;1.00;;;;;;;17.39;100.00;96475.50;5034711;28;20279;-66
2023/09/02 03:39:57;;;;;;;1.15;0.77;;;;;;;17.34;100.00;96474.53;5035652;28;20197;-66
2023/09/02 03:42:25;;;;;;;2.47;1.00;;;;;;;17.53;100.00;96476.28;5036238;28;20197;-66
2023/09/02 03:44:52;;;;;;;0.68;0.60;;;;;;;17.40;100.00;96473.66;5034851;28;20205;-65
2023/09/02 03:47:18;;;;;;;1.05;0.90;;;;;;;17.31;100.00;96480.25;5035798;28;20240;-68
2023/09/02 03:49:45;;;;;;;0.77;0.70;;;;;;;17.26;100.00;96480.91;5035703;28;20204;-67
2023/09/02 03:52:11;;;;;;;1.35;0.88;;;;;;;17.16;100.00;96472.50;5035379;28;20205;-67
2023/09/02 03:54:38;;;;;;;2.00;1.08;;;;;;;17.38;100.00;96476.53;5035641;28;20216;-67
2023/09/02 03:57:05;;;;;;;1.25;0.85;;;;;;;17.21;100.00;96483.34;5034820;28;20233;-67
2023/09/02 03:59:33;;;;;;;1.20;0.98;;;;;;;17.50;100.00;96488.16;5035836;28;20255;-66
2023/09/02 04:01:59;;;;;;;1.30;0.80;;;;;;;17.20;100.00;96489.69;5034966;28;20205;-66
2023/09/02 04:04:26;;;;;;;1.60;1.02;;;;;;;17.23;100.00;96493.78;5035527;28;20206;-66
2023/09/02 04:06:52;;;;;;;1.25;0.80;;;;;;;17.23;100.00;96494.63;5035081;28;20227;-66
2023/09/02 04:09:19;;;;;;;1.45;1.00;;;;;;;17.09;100.00;96492.22;5035753;28;20197;-66
2023/09/02 04:11:45;;;;;;;0.90;0.75;;;;;;;17.02;100.00;96495.91;5035993;28;20236;-66
2023/09/02 04:14:12;;;;;;;1.73;1.10;;;;;;;17.01;100.00;96494.31;5035539;28;20205;-67
2023/09/02 04:16:40;;;;;;;0.77;0.73;;;;;;;17.30;100.00;96499.97;5035504;28;20236;-67
2023/09/02 04:19:06;;;;;;;1.42;0.90;;;;;;;17.18;100.00;96501.59;5035103;28;20228;-67
2023/09/02 04:21:33;;;;;;;0.65;0.60;;;;;;;17.15;100.00;96507.34;5035196;28;20682;-66
2023/09/02 04:24:00;;;;;;;1.35;1.05;;;;;;;17.07;100.00;96499.59;5035498;28;20208;-67
2023/09/02 04:26:26;;;;;;;0.90;0.85;;;;;;;17.10;100.00;96492.00;5036026;28;20225;-67
2023/09/02 04:28:55;;;;;;;1.15;1.05;;;;;;;17.14;100.00;96498.56;5035813;28;20208;-66
2023/09/02 04:31:22;;;;;;;0.85;0.80;;;;;;;16.93;100.00;96497.16;5035118;28;20201;-67
2023/09/02 04:33:49;;;;;;;2.10;1.05;;;;;;;17.30;100.00;96500.75;5034951;28;20205;-67
2023/09/02 04:36:16;;;;;;;1.35;0.55;;;;;;;17.04;100.00;96499.19;5038743;28;20212;-67
2023/09/02 04:38:42;;;;;;;0.77;0.73;;;;;;;16.92;100.00;96500.88;5038441;28;20730;-66
2023/09/02 04:41:09;;;;;;;1.23;0.93;;;;;;;16.93;100.00;96503.34;5038473;28;20219;-67
2023/09/02 04:43:36;;;;;;;3.38;0.98;;;;;;;17.09;100.00;96511.69;5039038;28;20201;-67
2023/09/02 04:46:03;;;;;;;1.75;1.00;;;;;;;17.15;100.00;96510.00;5037943;28;20206;-66
2023/09/02 04:48:30;;;;;;;0.77;0.68;;;;;;;17.07;100.00;96510.25;5037883;28;20663;-66
2023/09/02 04:50:58;;;;;;;1.40;1.30;;;;;;;17.40;100.00;96506.47;5038051;28;20202;-66
2023/09/02 04:53:25;;;;;;;1.85;1.15;;;;;;;17.14;100.00;96513.69;5038824;28;20205;-67
2023/09/02 04:55:52;;;;;;;5.10;0.98;;;;;;;17.00;100.00;96509.44;5038589;28;21113;-66
2023/09/02 04:58:20;;;;;;;3.60;1.10;;;;;;;17.09;100.00;96508.19;5037814;28;20294;-66
2023/09/02 05:00:47;;;;;;;1.10;0.80;;;;;;;17.07;100.00;96515.59;5038603;28;20671;-67
2023/09/02 05:03:13;;;;;;;1.35;1.08;;;;;;;17.09;100.00;96516.16;5037726;28;20269;-67
2023/09/02 05:05:41;;;;;;;1.55;0.77;;;;;;;17.18;100.00;96518.41;5038409;28;20205;-66
2023/09/02 05:08:09;;;;;;;1.60;1.25;;;;;;;17.32;100.00;96519.19;5037539;28;20217;-66
2023/09/02 05:10:35;;;;;;;1.60;1.13;;;;;;;17.08;100.00;96524.38;5038653;28;20201;-67
2023/09/02 05:13:02;;;;;;;1.83;1.10;;;;;;;16.96;100.00;96529.53;5038006;28;20197;-67
2023/09/02 05:15:29;;;;;;;1.88;1.20;;;;;;;17.06;100.00;96534.44;5038110;28;20742;-67
2023/09/02 05:17:57;;;;;;;2.00;1.00;;;;;;;17.53;100.00;96532.22;5037978;28;20233;-67
2023/09/02 05:20:24;;;;;;;1.42;0.98;;;;;;;17.17;100.00;96530.09;5037915;28;20940;-67
2023/09/02 05:22:50;;;;;;;1.58;0.95;;;;;;;17.21;100.00;96539.28;5038005;28;20215;-67
2023/09/02 05:25:18;;;;;;;3.78;1.17;;;;;;;17.71;100.00;96535.81;5037776;28;20212;-67
2023/09/02 05:27:45;;;;;;;1.30;1.10;;;;;;;17.46;100.00;96540.22;5037334;28;20220;-67
2023/09/02 05:30:12;;;;;;;2.60;1.10;;;;;;;17.67;100.00;96547.94;5038440;28;20320;-67
2023/09/02 05:32:39;;;;;;;1.35;0.82;;;;;;;17.62;100.00;96546.94;5038208;28;20201;-67
2023/09/02 05:35:06;;;;;;;5.47;1.00;;;;;;;17.74;100.00;96543.38;5037912;28;20201;-67
2023/09/02 05:37:32;;;;;;;1.67;1.05;;;;;;;17.76;100.00;96544.00;5036469;28;20224;-66
2023/09/02 05:39:58;;;;;;;2.00;1.13;;;;;;;17.80;100.00;96542.53;5038362;28;20208;-67
2023/09/02 05:42:26;;;;;;;1.83;0.88;;;;;;;18.10;100.00;96543.56;5037921;28;20193;-67
2023/09/02 05:44:53;;;;;;;2.35;1.20;;;;;;;17.92;100.00;96551.47;5037350;28;20209;-67
2023/09/02 05:47:19;;;;;;;3.60;1.40;;;;;;;17.97;100.00;96557.81;5036475;28;20718;-67
2023/09/02 05:49:46;;;;;;;2.88;1.50;;;;;;;18.20;100.00;96557.28;5038622;28;20895;-66
2023/09/02 05:52:12;;;;;;;2.10;1.27;;;;;;;18.20;100.00;96562.59;5036687;28;20213;-66
2023/09/02 05:54:39;;;;;;;2.70;1.33;;;;;;;18.53;100.00;96559.47;5037275;28;21092;-67
2023/09/02 05:57:05;;;;;;;4.32;2.03;;;;;;;18.37;100.00;96565.34;5036853;28;20427;-66
2023/09/02 05:59:33;;;;;;;2.33;1.52;;;;;;;18.83;100.00;96563.09;5037463;28;20229;-66
2023/09/02 06:01:59;;;;;;;2.90;2.00;;;;;;;18.58;100.00;96556.97;5037014;28;20206;-67
2023/09/02 06:04:26;;;;;;;3.03;1.52;;;;;;;18.71;100.00;96564.03;5037436;28;20201;-67
2023/09/02 06:06:52;;;;;;;2.88;1.88;;;;;;;18.80;100.00;96558.22;5036807;28;20224;-66
2023/09/02 06:09:19;;;;;;;4.50;2.10;;;;;;;18.91;100.00;96562.81;5036887;28;20212;-66
2023/09/02 06:11:45;;;;;;;2.65;1.92;;;;;;;19.00;100.00;96561.50;5036427;28;20201;-65
2023/09/02 06:14:12;;;;;;;4.35;2.15;;;;;;;19.09;100.00;96560.19;5035282;28;20205;-67
2023/09/02 06:16:40;;;;;;;3.10;1.60;;;;;;;19.30;100.00;96560.59;5036735;28;20224;-66
2023/09/02 06:19:06;;;;;;;3.40;2.15;;;;;;;19.13;100.00;96561.38;5036492;28;20236;-66
2023/09/02 06:21:33;;;;;;;3.05;1.92;;;;;;;19.09;100.00;96555.69;5037463;28;20682;-66
2023/09/02 06:23:59;;;;;;;3.92;1.92;;;;;;;19.21;100.00;96547.75;5036526;28;20572;-67
2023/09/02 06:26:26;;;;;;;2.42;1.75;;;;;;;19.29;100.00;96552.78;5035455;28;20520;-67
2023/09/02 06:28:52;;;;;;;3.33;1.80;;;;;;;19.12;100.00;96557.91;5036647;28;20193;-67
2023/09/02 06:31:19;;;;;;;2.75;1.75;;;;;;;19.13;100.00;96558.72;5035902;28;20216;-67
2023/09/02 06:33:47;;;;;;;2.55;1.67;;;;;;;19.24;100.00;96552.66;5035251;28;20212;-67
2023/09/02 06:36:14;;;;;;;2.97;1.77;;;;;;;19.34;100.00;96559.09;5035406;28;20220;-66
2023/09/02 06:38:41;;;;;;;3.85;1.75;;;;;;;19.35;100.00;96554.59;5035852;28;20646;-66
2023/09/02 06:41:11;;;;;;;5.10;2.65;;;;;;;19.79;100.00;96550.53;5035006;28;20682;-67
2023/09/02 06:43:39;;;;;;;5.03;2.03;;;;;;;19.43;100.00;96562.31;5035067;28;20211;-65
2023/09/02 06:46:12;;;;;;;3.95;2.22;;;;;;;19.83;100.00;96559.72;5034793;28;20209;-67
2023/09/02 06:48:39;;;;;;;5.00;2.30;;;;;;;19.44;100.00;96556.72;5035464;28;20193;-67
2023/09/02 06:51:07;;;;;;;6.05;1.98;;;;;;;19.65;100.00;96557.09;5034244;28;20652;-67
2023/09/02 06:53:33;;;;;;;5.22;2.33;;;;;;;19.51;100.00;96553.97;5036223;28;20208;-68
2023/09/02 06:56:00;;;;;;;3.17;2.05;;;;;;;19.60;100.00;96570.31;5036178;28;20211;-67
2023/09/02 06:58:26;;;;;;;4.50;2.47;;;;;;;19.82;100.00;96560.75;5033890;28;20229;-67
2023/09/02 07:00:53;;;;;;;7.55;2.17;;;;;;;19.82;100.00;96568.78;5035108;28;20201;-67
2023/09/02 07:03:19;;;;;;;4.43;1.95;;;;;;;20.19;100.00;96570.34;5035843;28;20208;-67
2023/09/02 07:05:46;;;;;;;3.10;1.67;;;;;;;20.21;100.00;96573.59;5035655;28;20706;-67
2023/09/02 07:08:14;;;;;;;3.70;1.65;;;;;;;20.59;100.00;96572.19;5033788;28;21022;-67
2023/09/02 07:10:40;;;;;;;3.97;1.90;;;;;;;20.38;100.00;96569.25;5035283;28;20534;-67
2023/09/02 07:13:07;;;;;;;2.55;1.88;;;;;;;20.50;100.00;96572.75;5035882;28;20201;-67
2023/09/02 07:15:34;;;;;;;3.67;1.80;;;;;;;20.58;100.00;96577.78;5033639;28;20234;-67
2023/09/02 07:18:01;;;;;;;3.92;1.98;;;;;;;20.74;100.00;96580.63;5035718;28;20229;-67
2023/09/02 07:20:27;;;;;;;10.82;2.00;;;;;;;20.68;100.00;96580.72;5035336;28;20220;-67
2023/09/02 07:22:53;;;;;;;2.70;1.70;;;;;;;20.54;100.00;96585.44;5035777;28;20382;-67
2023/09/02 07:25:22;;;;;;;4.47;1.92;;;;;;;21.23;100.00;96586.38;5035779;28;20680;-67
2023/09/02 07:27:48;;;;;;;2.25;1.52;;;;;;;20.86;100.00;96590.31;5035403;28;20232;-67
2023/09/02 07:30:15;;;;;;;3.72;1.98;;;;;;;20.82;100.00;96584.84;5035523;28;20217;-67
2023/09/02 07:32:41;;;;;;;4.55;1.88;;;;;;;20.81;100.00;96594.72;5035684;28;20201;-67
2023/09/02 07:35:08;;;;;;;3.15;1.52;;;;;;;20.96;100.00;96590.56;5035801;28;20259;-67
2023/09/02 07:37:34;;;;;;;8.02;2.00;;;;;;;21.17;100.00;96598.00;5035180;28;20703;-67
2023/09/02 07:40:01;;;;;;;3.83;2.10;;;;;;;21.35;100.00;96591.72;5035661;28;20597;-67
2023/09/02 07:42:29;;;;;;;3.47;1.95;;;;;;;21.67;100.00;96589.22;5035488;28;20197;-67
2023/09/02 07:44:55;;;;;;;2.80;1.58;;;;;;;21.50;100.00;96606.28;5035668;28;20209;-67
2023/09/02 07:47:22;;;;;;;2.35;1.85;;;;;;;21.34;100.00;96598.94;5035212;28;20228;-67
2023/09/02 07:49:48;;;;;;;3.58;2.03;;;;;;;21.76;100.00;96597.72;5035793;28;20201;-67
2023/09/02 07:52:16;;;;;;;2.45;1.60;;;;;;;22.09;100.00;96604.84;5034666;28;20216;-67
2023/09/02 07:54:43;;;;;;;2.80;1.52;;;;;;;22.09;100.00;96607.53;5035155;28;20283;-67
2023/09/02 07:57:09;;;;;;;5.65;2.47;;;;;;;22.31;100.00;96602.34;5034469;28;20237;-67
2023/09/02 07:59:37;;;;;;;3.63;1.75;;;;;;;22.14;100.00;96598.75;5035429;28;20236;-67
2023/09/02 08:02:04;;;;;;;2.22;1.63;;;;;;;21.91;100.00;96601.53;5034105;28;20201;-67
2023/09/02 08:04:31;;;;;;;3.03;1.85;;;;;;;21.62;100.00;96604.41;5034239;28;20683;-67
2023/09/02 08:06:57;;;;;;;2.40;1.30;;;;;;;22.27;100.00;96599.31;5035103;28;20516;-67
2023/09/02 08:09:23;;;;;;;2.17;1.45;;;;;;;22.50;100.00;96604.56;5038784;28;20236;-67
2023/09/02 08:11:50;;;;;;;2.53;1.58;;;;;;;22.42;100.00;96610.34;5039140;28;20201;-67
2023/09/02 08:14:16;;;;;;;2.20;1.42;;;;;;;22.65;100.00;96610.22;5038760;28;20205;-67
2023/09/02 08:16:44;;;;;;;3.08;1.60;;;;;;;22.87;100.00;96613.81;5039697;28;20228;-67
2023/09/02 08:19:11;;;;;;;1.50;1.13;;;;;;;23.07;100.00;96623.03;5038397;28;20225;-67
2023/09/02 08:21:37;;;;;;;2.08;1.10;;;;;;;23.52;100.00;96624.56;5038483;28;20205;-67
2023/09/02 08:24:04;;;;;;;1.70;1.20;;;;;;;23.54;100.00;96624.31;5037611;28;20213;-67
2023/09/02 08:26:30;;;;;;;1.58;1.10;;;;;;;23.78;100.00;96628.41;5037256;28;20233;-67
2023/09/02 08:28:57;;;;;;;2.33;1.30;;;;;;;23.62;100.00;96631.94;5037006;28;20205;-67
2023/09/02 08:31:23;;;;;;;2.60;1.08;;;;;;;23.97;100.00;96630.56;5037597;28;20213;-67
2023/09/02 08:33:51;;;;;;;1.35;0.98;;;;;;;24.22;100.00;96633.56;5036499;28;20217;-67
2023/09/02 08:36:18;;;;;;;1.50;0.88;;;;;;;24.41;100.00;96632.19;5037476;28;20208;-67
2023/09/02 08:38:45;;;;;;;4.70;1.40;;;;;;;24.34;100.00;96620.78;5037045;28;20221;-67
2023/09/02 08:41:17;;;;;;;2.63;1.13;;;;;;;24.62;100.00;96622.19;5036894;28;20205;-67
2023/09/02 08:43:44;;;;;;;2.28;1.40;;;;;;;24.42;100.00;96614.97;5036409;28;20201;-67
2023/09/02 08:46:13;;;;;;;1.45;1.10;;;;;;;24.93;100.00;96626.78;5036923;28;20208;-67
2023/09/02 08:48:43;;;;;;;1.60;1.00;;;;;;;25.20;100.00;96619.47;5034681;28;20197;-67
2023/09/02 08:51:12;;;;;;;2.42;1.00;;;;;;;25.24;99.63;96617.88;5036500;28;20201;-67
2023/09/02 08:53:39;;;;;;;1.67;0.85;;;;;;;24.95;100.00;96621.94;5037804;28;20256;-67
2023/09/02 08:56:08;;;;;;;1.30;0.90;;;;;;;25.03;100.00;96629.56;5036420;28;20212;-67
2023/09/02 08:58:37;;;;;;;1.88;1.00;;;;;;;24.95;100.00;96621.94;5035050;28;20232;-67
2023/09/02 09:01:03;;;;;;;1.60;0.88;;;;;;;25.23;100.00;96622.47;5035423;28;20663;-67
2023/09/02 09:03:32;;;;;;;2.95;1.08;;;;;;;25.17;100.00;96619.22;5036849;28;20208;-67
2023/09/02 09:05:59;;;;;;;1.83;0.80;;;;;;;25.27;98.84;96625.47;5037826;28;20197;-67
2023/09/02 09:08:29;;;;;;;1.50;0.70;;;;;;;25.87;100.00;96622.09;5037550;28;20229;-67
2023/09/02 09:10:56;;;;;;;1.67;1.27;;;;;;;25.61;99.11;96626.78;5037972;28;20209;-67
2023/09/02 09:13:25;;;;;;;0.93;0.70;;;;;;;25.69;99.07;96626.28;5036457;28;20236;-67
2023/09/02 09:15:55;;;;;;;1.88;1.10;;;;;;;25.56;97.56;96629.44;5037878;28;20206;-67
2023/09/02 09:18:21;;;;;;;1.88;0.80;;;;;;;25.42;100.00;96628.25;5038161;28;20232;-67
2023/09/02 09:20:48;;;;;;;1.73;1.00;;;;;;;25.95;95.07;96635.13;5035458;28;20221;-67
2023/09/02 09:23:15;;;;;;;0.88;0.63;;;;;;;25.98;97.30;96631.88;5036714;28;20205;-67
2023/09/02 09:25:44;;;;;;;1.45;0.90;;;;;;;26.65;92.45;96636.19;5035756;28;20201;-67
2023/09/02 09:28:12;;;;;;;3.25;0.93;;;;;;;26.92;90.86;96630.56;5036740;28;20782;-67
2023/09/02 09:30:39;;;;;;;1.08;0.70;;;;;;;27.03;88.96;96635.72;5036739;28;20197;-67
2023/09/02 09:33:07;;;;;;;2.22;1.20;;;;;;;26.86;85.47;96632.44;5038149;28;20206;-67
2023/09/02 09:35:34;;;;;;;1.33;0.70;;;;;;;26.75;92.02;96635.41;5037204;28;21208;-67
2023/09/02 09:38:01;;;;;;;3.10;0.80;;;;;;;26.71;84.06;96637.03;5036932;28;20236;-67
2023/09/02 09:40:31;;;;;;;1.58;0.73;;;;;;;27.31;83.43;96627.09;5037343;28;20240;-67
2023/09/02 09:43:00;;;;;;;1.40;0.70;;;;;;;26.93;82.72;96632.19;5037229;28;20233;-67
2023/09/02 09:45:27;;;;;;;1.42;1.17;;;;;;;26.89;82.66;96636.50;5036215;28;20212;-67
2023/09/02 09:47:57;;;;;;;1.58;0.75;;;;;;;27.10;79.34;96634.38;5037423;28;20231;-67
2023/09/02 09:50:23;;;;;;;0.88;0.60;;;;;;;27.08;80.51;96634.94;5036395;28;20209;-67
2023/09/02 09:52:59;;;;;;;0.98;0.60;;;;;;;27.67;80.55;96640.31;5035365;28;20957;-67
2023/09/02 09:55:26;;;;;;;0.90;0.88;;;;;;;27.11;86.19;96640.59;5036359;28;20207;-67
2023/09/02 09:57:54;;;;;;;0.93;0.70;;;;;;;27.44;86.91;96643.56;5036580;28;20237;-67
2023/09/02 10:00:22;;;;;;;0.80;0.60;;;;;;;27.75;79.20;96640.59;5037213;28;20275;-67
2023/09/02 10:02:52;;;;;;;0.52;0.40;;;;;;;28.18;72.04;96636.41;5037567;28;20206;-67
2023/09/02 10:05:25;;;;;;;0.90;0.55;;;;;;;27.90;65.93;96639.72;5035988;28;20201;-68
2023/09/02 10:07:58;;;;;;;0.65;0.45;;;;;;;27.93;59.91;96645.41;5036432;28;20267;-67
2023/09/02 10:10:28;;;;;;;2.63;0.47;;;;;;;27.67;63.32;96640.31;5037294;28;20290;-67
2023/09/02 10:12:56;;;;;;;0.30;0.30;;;;;;;27.49;64.31;96643.56;5037464;28;20347;-68
2023/09/02 10:15:26;;;;;;;0.50;0.30;;;;;;;27.99;60.63;96644.31;5035642;28;20212;-67
2023/09/02 10:17:57;;;;;;;0.60;0.25;;;;;;;28.24;58.72;96641.53;5036230;28;20248;-67
2023/09/02 10:20:27;;;;;;;1.20;0.45;;;;;;;27.90;57.76;96647.84;5036975;28;20314;-68
2023/09/02 10:22:54;;;;;;;0.65;0.38;;;;;;;27.83;57.67;96650.06;5036696;28;20725;-68
2023/09/02 10:25:25;;;;;;;0.25;0.20;;;;;;;27.98;56.59;96648.13;5036245;28;20679;-67
2023/09/02 10:28:00;;;;;;;0.80;0.40;;;;;;;28.34;56.19;96641.50;5036196;28;20221;-67
2023/09/02 10:30:32;;;;;;;0.82;0.60;;;;;;;28.40;58.99;96637.69;5037333;28;20223;-67
2023/09/02 10:33:07;;;;;;;1.00;0.32;;;;;;;28.28;56.04;96636.38;5036178;28;20202;-67
2023/09/02 10:35:39;;;;;;;0.65;0.40;;;;;;;28.26;56.19;96641.25;5036597;28;20204;-68
2023/09/02 10:38:08;;;;;;;0.32;0.32;;;;;;;28.30;60.80;96637.72;5035856;28;20225;-67
2023/09/02 10:40:39;;;;;;;0.85;0.50;;;;;;;28.71;58.92;96633.72;5036840;28;21003;-67
2023/09/02 10:43:07;;;;;;;0.70;0.50;;;;;;;28.82;58.73;96638.00;5036968;28;20206;-66
2023/09/02 10:45:35;;;;;;;0.30;0.30;;;;;;;28.76;59.40;96629.09;5036399;28;20295;-67
2023/09/02 10:48:02;;;;;;;0.73;0.50;;;;;;;28.12;57.35;96638.31;5034544;28;20247;-67
2023/09/02 10:50:29;;;;;;;0.52;0.43;;;;;;;28.43;57.58;96629.78;5036382;28;20201;-67
2023/09/02 10:52:56;;;;;;;0.60;0.30;;;;;;;28.83;53.44;96623.34;5035736;28;20201;-67
2023/09/02 10:55:22;;;;;;;0.85;0.52;;;;;;;29.19;54.92;96634.47;5035771;28;20201;-67
2023/09/02 10:57:51;;;;;;;0.50;0.50;;;;;;;29.55;54.72;96635.03;5035258;28;20229;-67
2023/09/02 11:00:19;;;;;;;1.40;0.60;;;;;;;29.13;55.67;96627.47;5035916;28;20228;-67
2023/09/02 11:02:51;;;;;;;1.65;0.75;;;;;;;28.94;56.10;96628.44;5035734;28;20207;-67
2023/09/02 11:05:19;;;;;;;0.80;0.60;;;;;;;28.61;58.80;96631.84;5036412;28;20208;-67
2023/09/02 11:07:46;;;;;;;1.33;0.70;;;;;;;29.09;56.17;96629.13;5035081;28;20225;-67
2023/09/02 11:10:13;;;;;;;0.47;0.38;;;;;;;28.99;59.02;96631.09;5036045;28;20205;-67
2023/09/02 11:13:12;;;;;;;2.05;0.85;;;;;;;29.93;58.91;96627.59;5035656;28;20193;-68
2023/09/02 11:15:39;;;;;;;0.70;0.50;;;;;;;29.53;58.55;96629.06;4974316;28;20903;-67
2023/09/02 11:18:29;;;;;;;0.85;0.60;;;;;;;29.78;58.59;96627.72;4973352;28;20241;-68
2023/09/02 11:20:57;;;;;;;1.13;0.60;;;;;;;29.39;55.77;96620.78;5009609;28;20221;-67
2023/09/02 11:23:23;;;;;;;0.80;0.50;;;;;;;29.25;57.35;96627.09;5034658;28;20204;-67
2023/09/02 11:26:01;;;;;;;2.08;0.95;;;;;;;29.70;61.09;96617.47;5034477;28;20204;-68
2023/09/02 11:28:28;;;;;;;0.95;0.70;;;;;;;29.45;58.53;96621.53;5034409;28;20237;-68
2023/09/02 11:31:06;;;;;;;0.80;0.50;;;;;;;29.43;58.63;96619.13;5035038;28;20201;-67